Time;durP1;ratioP1;P1;durP2;ratioP2;P2;SDS_P1;SDS_P2;PMS_P1;PMS_P2;Temp;Humidity;BMP_temperature;BMP_pressure;BME280_temperature;BME280_humidity;BME280_pressure;Samples;Min_cycle;Max_cycle;Signal;HPM_P1;HPM_P2
2023/12/11 00:01:16;;;;;;;3.67;1.88;;;;;;;;;;5076480;28;20115;-22
2023/12/11 00:03:42;;;;;;;3.00;1.65;;;;;;;;;;5076246;28;20025;-19
2023/12/11 00:06:08;;;;;;;4.22;2.35;;;;;;;;;;5075344;28;20040;-20
2023/12/11 00:08:35;;;;;;;4.47;2.33;;;;;;;;;;5076668;28;20025;-19
2023/12/11 00:11:01;;;;;;;5.22;1.92;;;;;;;;;;5076327;28;20029;-17
2023/12/11 00:13:27;;;;;;;3.90;2.42;;;;;;;;;;5076455;28;20114;-19
2023/12/11 00:15:53;;;;;;;3.28;1.90;;;;;;;;;;5076551;28;20362;-22
2023/12/11 00:18:19;;;;;;;2.80;1.80;;;;;;;;;;5076998;28;20028;-22
2023/12/11 00:20:46;;;;;;;3.55;2.20;;;;;;;;;;5076093;28;20363;-24
2023/12/11 00:23:12;;;;;;;3.15;1.80;;;;;;;;;;5076055;28;20016;-18
2023/12/11 00:25:45;;;;;;;4.80;1.88;;;;;;;;;;5076086;28;20024;-17
2023/12/11 00:28:11;;;;;;;4.82;1.50;;;;;;;;;;5076351;28;20086;-18
2023/12/11 00:30:37;;;;;;;2.70;1.85;;;;;;;;;;5076229;28;20445;-21
2023/12/11 00:33:03;;;;;;;2.88;2.13;;;;;;;;;;5076014;28;20028;-20
2023/12/11 00:35:29;;;;;;;2.97;1.90;;;;;;;;;;5076159;28;20031;-21
2023/12/11 00:37:56;;;;;;;3.08;1.83;;;;;;;;;;5075866;28;20436;-20
2023/12/11 00:40:22;;;;;;;3.83;2.00;;;;;;;;;;5076458;28;20043;-19
2023/12/11 00:42:48;;;;;;;4.10;1.50;;;;;;;;;;5075829;28;20024;-21
2023/12/11 00:45:14;;;;;;;3.00;1.73;;;;;;;;;;5075931;28;20025;-19
2023/12/11 00:47:41;;;;;;;4.15;1.90;;;;;;;;;;5075581;28;20025;-19
2023/12/11 00:50:07;;;;;;;3.45;1.80;;;;;;;;;;5075822;28;20024;-20
2023/12/11 00:52:33;;;;;;;2.90;1.38;;;;;;;;;;5074504;28;20016;-20
2023/12/11 00:54:59;;;;;;;3.00;1.73;;;;;;;;;;5075700;28;20385;-21
2023/12/11 00:57:26;;;;;;;3.72;2.10;;;;;;;;;;5075395;28;20112;-17
2023/12/11 00:59:52;;;;;;;4.18;2.90;;;;;;;;;;5075815;28;20440;-20
2023/12/11 01:02:18;;;;;;;2.13;1.80;;;;;;;;;;5075523;28;20024;-20
2023/12/11 01:04:44;;;;;;;3.97;2.28;;;;;;;;;;5075277;28;20368;-19
2023/12/11 01:07:11;;;;;;;3.40;1.85;;;;;;;;;;5075540;28;20017;-21
2023/12/11 01:09:37;;;;;;;4.22;1.85;;;;;;;;;;5075186;28;20032;-21
2023/12/11 01:12:04;;;;;;;2.90;1.90;;;;;;;;;;5075617;28;20099;-18
2023/12/11 01:14:31;;;;;;;2.83;1.55;;;;;;;;;;5075364;28;20462;-18
2023/12/11 01:16:57;;;;;;;3.53;2.42;;;;;;;;;;5074792;28;20455;-20
2023/12/11 01:19:23;;;;;;;3.30;1.70;;;;;;;;;;5075047;28;20478;-23
2023/12/11 01:21:49;;;;;;;3.10;1.95;;;;;;;;;;5074880;28;20024;-20
2023/12/11 01:24:16;;;;;;;2.95;1.70;;;;;;;;;;5074926;28;20020;-21
2023/12/11 01:26:42;;;;;;;4.07;2.05;;;;;;;;;;5075214;28;20350;-20
2023/12/11 01:29:09;;;;;;;4.75;2.22;;;;;;;;;;5075171;28;20035;-18
2023/12/11 01:31:35;;;;;;;4.10;2.13;;;;;;;;;;5075175;28;20044;-18
2023/12/11 01:34:01;;;;;;;3.55;1.90;;;;;;;;;;5074828;28;20024;-19
2023/12/11 01:36:27;;;;;;;4.68;2.13;;;;;;;;;;5074780;28;20090;-22
2023/12/11 01:38:53;;;;;;;4.40;2.08;;;;;;;;;;5075067;28;20078;-21
2023/12/11 01:41:20;;;;;;;3.22;1.77;;;;;;;;;;5074674;28;20035;-20
2023/12/11 01:43:56;;;;;;;5.65;2.22;;;;;;;;;;5074700;28;20363;-19
2023/12/11 01:46:23;;;;;;;3.80;1.70;;;;;;;;;;5074698;28;20036;-19
2023/12/11 01:48:50;;;;;;;2.53;1.65;;;;;;;;;;5074630;28;20032;-18
2023/12/11 01:51:17;;;;;;;4.18;2.10;;;;;;;;;;5074886;28;20360;-20
2023/12/11 01:53:48;;;;;;;2.95;1.88;;;;;;;;;;5074551;28;20044;-19
2023/12/11 01:56:14;;;;;;;3.63;2.42;;;;;;;;;;5074906;28;20027;-20
2023/12/11 01:58:41;;;;;;;3.28;2.10;;;;;;;;;;5074810;28;20033;-21
2023/12/11 02:01:09;;;;;;;3.92;2.00;;;;;;;;;;5074481;28;20055;-20
2023/12/11 02:03:36;;;;;;;3.22;2.10;;;;;;;;;;5074710;28;20021;-19
2023/12/11 02:06:02;;;;;;;3.17;1.95;;;;;;;;;;5074310;28;20044;-20
2023/12/11 02:08:28;;;;;;;3.83;2.38;;;;;;;;;;5074979;28;20017;-20
2023/12/11 02:10:55;;;;;;;3.17;1.67;;;;;;;;;;5074426;28;20025;-17
2023/12/11 02:13:21;;;;;;;2.60;1.70;;;;;;;;;;5074399;28;20039;-17
2023/12/11 02:15:49;;;;;;;2.95;2.03;;;;;;;;;;5074424;28;20025;-21
2023/12/11 02:18:19;;;;;;;4.65;2.40;;;;;;;;;;5074333;28;20184;-17
2023/12/11 02:20:45;;;;;;;4.68;2.10;;;;;;;;;;5074283;28;20409;-20
2023/12/11 02:23:26;;;;;;;3.10;2.03;;;;;;;;;;5074261;28;20021;-21
2023/12/11 02:25:58;;;;;;;3.42;2.10;;;;;;;;;;5074685;28;20044;-19
2023/12/11 02:28:24;;;;;;;3.92;2.15;;;;;;;;;;5077286;28;20359;-18
2023/12/11 02:30:51;;;;;;;5.07;2.30;;;;;;;;;;5078855;28;20020;-18
2023/12/11 02:33:17;;;;;;;2.72;1.70;;;;;;;;;;5078081;28;20060;-18
2023/12/11 02:35:46;;;;;;;3.55;1.85;;;;;;;;;;5078456;28;20081;-21
2023/12/11 02:38:12;;;;;;;3.85;3.30;;;;;;;;;;5078118;28;20024;-18
2023/12/11 02:40:39;;;;;;;3.75;2.08;;;;;;;;;;5078076;28;20448;-20
2023/12/11 02:43:05;;;;;;;3.58;1.60;;;;;;;;;;5078138;28;20431;-20
2023/12/11 02:45:32;;;;;;;5.20;2.05;;;;;;;;;;5077894;28;20032;-20
2023/12/11 02:48:02;;;;;;;4.10;2.10;;;;;;;;;;5078216;28;20351;-22
2023/12/11 02:50:32;;;;;;;5.13;1.83;;;;;;;;;;5077873;28;20085;-18
2023/12/11 02:52:58;;;;;;;3.35;1.90;;;;;;;;;;5077926;28;20027;-22
2023/12/11 02:55:25;;;;;;;3.53;1.83;;;;;;;;;;5077753;28;20452;-20
2023/12/11 02:57:57;;;;;;;5.47;2.15;;;;;;;;;;5077694;28;20032;-20
2023/12/11 03:00:23;;;;;;;3.78;2.05;;;;;;;;;;5077935;28;20029;-21
2023/12/11 03:02:49;;;;;;;3.92;1.48;;;;;;;;;;5077533;28;20021;-21
2023/12/11 03:05:16;;;;;;;3.83;2.08;;;;;;;;;;5077580;28;20426;-19
2023/12/11 03:07:42;;;;;;;4.75;2.00;;;;;;;;;;5077572;28;20083;-20
2023/12/11 03:10:08;;;;;;;3.50;1.83;;;;;;;;;;5077774;28;20100;-20
2023/12/11 03:12:35;;;;;;;3.42;2.40;;;;;;;;;;5077412;28;20367;-18
2023/12/11 03:15:03;;;;;;;4.85;2.25;;;;;;;;;;5077701;28;20320;-22
2023/12/11 03:17:29;;;;;;;3.95;2.15;;;;;;;;;;5076435;28;20016;-19
2023/12/11 03:19:55;;;;;;;6.25;2.35;;;;;;;;;;5077550;28;20025;-21
2023/12/11 03:22:24;;;;;;;3.97;2.35;;;;;;;;;;5077444;28;20036;-21
2023/12/11 03:24:51;;;;;;;4.35;1.83;;;;;;;;;;5077215;28;20031;-21
2023/12/11 03:27:17;;;;;;;3.63;2.17;;;;;;;;;;5077230;28;20102;-20
2023/12/11 03:29:44;;;;;;;4.82;2.08;;;;;;;;;;5077162;28;20020;-19
2023/12/11 03:32:10;;;;;;;3.30;1.98;;;;;;;;;;5077323;28;20029;-27
2023/12/11 03:34:36;;;;;;;3.60;2.08;;;;;;;;;;5077087;28;20058;-19
2023/12/11 03:37:02;;;;;;;5.10;2.78;;;;;;;;;;5077319;28;20466;-20
2023/12/11 03:39:28;;;;;;;4.03;1.98;;;;;;;;;;5076658;28;20409;-20
2023/12/11 03:41:55;;;;;;;5.35;2.47;;;;;;;;;;5077275;28;20035;-18
2023/12/11 03:44:21;;;;;;;3.85;2.13;;;;;;;;;;5076911;28;20031;-22
2023/12/11 03:46:47;;;;;;;4.03;2.50;;;;;;;;;;5077134;28;20394;-24
2023/12/11 03:49:18;;;;;;;4.22;2.00;;;;;;;;;;5076858;28;20025;-18
2023/12/11 03:51:44;;;;;;;2.92;2.03;;;;;;;;;;5076796;28;20035;-21
2023/12/11 03:54:11;;;;;;;2.13;1.63;;;;;;;;;;5076911;28;20048;-17
2023/12/11 03:56:37;;;;;;;3.65;2.20;;;;;;;;;;5076942;28;20386;-21
2023/12/11 03:59:03;;;;;;;3.45;2.20;;;;;;;;;;5076910;28;20020;-18
2023/12/11 04:01:29;;;;;;;6.50;2.42;;;;;;;;;;5076472;28;20036;-18
2023/12/11 04:03:55;;;;;;;4.20;1.80;;;;;;;;;;5076729;28;20056;-20
2023/12/11 04:06:22;;;;;;;3.95;2.28;;;;;;;;;;5076309;28;20111;-21
2023/12/11 04:08:48;;;;;;;2.63;1.60;;;;;;;;;;5076418;28;20031;-23
2023/12/11 04:11:14;;;;;;;2.97;1.95;;;;;;;;;;5076359;28;20077;-18
2023/12/11 04:13:40;;;;;;;2.85;1.75;;;;;;;;;;5076272;28;20473;-19
2023/12/11 04:16:07;;;;;;;4.05;2.53;;;;;;;;;;5076578;28;20028;-19
2023/12/11 04:18:33;;;;;;;4.88;2.80;;;;;;;;;;5076239;28;20043;-23
2023/12/11 04:20:59;;;;;;;3.85;2.10;;;;;;;;;;5076390;28;20036;-21
2023/12/11 04:23:26;;;;;;;3.72;2.60;;;;;;;;;;5076338;28;20437;-20
2023/12/11 04:25:54;;;;;;;5.43;1.83;;;;;;;;;;5076378;28;20031;-18
2023/12/11 04:28:21;;;;;;;3.20;2.30;;;;;;;;;;5075989;28;20081;-20
2023/12/11 04:30:47;;;;;;;3.08;2.15;;;;;;;;;;5075902;28;20031;-25
2023/12/11 04:33:13;;;;;;;2.80;1.88;;;;;;;;;;5075885;28;20028;-20
2023/12/11 04:35:40;;;;;;;3.67;2.00;;;;;;;;;;5075893;28;20032;-19
2023/12/11 04:38:06;;;;;;;3.95;2.33;;;;;;;;;;5076086;28;20107;-17
2023/12/11 04:40:32;;;;;;;5.30;2.42;;;;;;;;;;5075604;28;20024;-20
2023/12/11 04:42:58;;;;;;;3.88;2.00;;;;;;;;;;5075630;28;20020;-21
2023/12/11 04:45:24;;;;;;;4.25;2.47;;;;;;;;;;5075627;28;20021;-21
2023/12/11 04:47:50;;;;;;;3.35;2.08;;;;;;;;;;5075581;28;20039;-19
2023/12/11 04:50:17;;;;;;;3.60;2.20;;;;;;;;;;5074677;28;20036;-23
2023/12/11 04:52:43;;;;;;;3.83;2.72;;;;;;;;;;5075444;28;20035;-18
2023/12/11 04:55:09;;;;;;;2.85;1.77;;;;;;;;;;5075693;28;20024;-21
2023/12/11 04:57:35;;;;;;;3.05;1.98;;;;;;;;;;5075344;28;20036;-20
2023/12/11 05:00:02;;;;;;;4.93;2.67;;;;;;;;;;5074260;28;20029;-19
2023/12/11 05:02:28;;;;;;;4.18;2.20;;;;;;;;;;5075230;28;20081;-19
2023/12/11 05:04:55;;;;;;;2.78;1.70;;;;;;;;;;5075057;28;20052;-23
2023/12/11 05:07:21;;;;;;;4.10;2.03;;;;;;;;;;5075159;28;20055;-21
2023/12/11 05:09:47;;;;;;;5.60;3.20;;;;;;;;;;5075092;28;20086;-20
2023/12/11 05:12:13;;;;;;;2.88;1.70;;;;;;;;;;5074815;28;20093;-23
2023/12/11 05:14:39;;;;;;;5.75;2.13;;;;;;;;;;5075176;28;20411;-19
2023/12/11 05:17:06;;;;;;;3.88;2.38;;;;;;;;;;5074761;28;20024;-20
2023/12/11 05:19:32;;;;;;;2.97;1.95;;;;;;;;;;5075225;28;20443;-23
2023/12/11 05:21:58;;;;;;;2.95;1.98;;;;;;;;;;5074839;28;20033;-22
2023/12/11 05:24:25;;;;;;;5.55;2.33;;;;;;;;;;5074535;28;20107;-20
2023/12/11 05:26:51;;;;;;;4.80;2.30;;;;;;;;;;5075004;28;20035;-21
2023/12/11 05:29:18;;;;;;;3.83;2.10;;;;;;;;;;5074783;28;20025;-21
2023/12/11 05:31:44;;;;;;;4.28;2.60;;;;;;;;;;5073820;28;20507;-20
2023/12/11 05:34:10;;;;;;;3.65;1.67;;;;;;;;;;5074274;28;20048;-19
2023/12/11 05:36:36;;;;;;;4.68;2.67;;;;;;;;;;5074379;28;20028;-24
2023/12/11 05:39:02;;;;;;;6.53;2.47;;;;;;;;;;5074322;28;20468;-21
2023/12/11 05:41:29;;;;;;;3.47;2.22;;;;;;;;;;5074161;28;20075;-21
2023/12/11 05:43:57;;;;;;;18.00;3.13;;;;;;;;;;5074314;28;20025;-23
2023/12/11 05:46:24;;;;;;;5.22;2.38;;;;;;;;;;5074383;28;20082;-20
2023/12/11 05:48:50;;;;;;;12.18;3.25;;;;;;;;;;5074257;28;20401;-21
2023/12/11 05:51:16;;;;;;;5.18;2.25;;;;;;;;;;5074404;28;20036;-19
2023/12/11 05:53:42;;;;;;;5.65;2.92;;;;;;;;;;5074244;28;20024;-19
2023/12/11 05:56:09;;;;;;;4.72;2.35;;;;;;;;;;5074541;28;20360;-22
2023/12/11 05:58:36;;;;;;;7.43;2.83;;;;;;;;;;5073066;28;20064;-18
2023/12/11 06:03:38;;;;;;;4.18;2.22;;;;;;;;;;5307421;22;20440;-29
2023/12/11 06:06:04;;;;;;;3.58;2.17;;;;;;;;;;5074764;28;20013;-32
2023/12/11 06:08:31;;;;;;;4.07;2.13;;;;;;;;;;5073986;28;20534;-27
2023/12/11 06:10:58;;;;;;;5.47;2.75;;;;;;;;;;5074507;28;20025;-28
2023/12/11 06:13:24;;;;;;;4.15;2.65;;;;;;;;;;5073947;28;20090;-31
2023/12/11 06:15:50;;;;;;;5.90;2.20;;;;;;;;;;5073892;28;20031;-27
2023/12/11 06:18:16;;;;;;;4.60;2.28;;;;;;;;;;5073977;28;20324;-28
2023/12/11 06:20:42;;;;;;;6.55;2.40;;;;;;;;;;5074081;28;20068;-31
2023/12/11 06:23:09;;;;;;;4.43;2.15;;;;;;;;;;5073951;28;20024;-32
2023/12/11 06:25:35;;;;;;;3.58;2.25;;;;;;;;;;5074016;28;20020;-29
2023/12/11 06:28:01;;;;;;;5.47;2.17;;;;;;;;;;5073985;28;20016;-28
2023/12/11 06:30:28;;;;;;;3.55;1.63;;;;;;;;;;5074215;28;20020;-27
2023/12/11 06:32:54;;;;;;;3.72;2.05;;;;;;;;;;5073928;28;20031;-30
2023/12/11 06:35:20;;;;;;;4.45;2.90;;;;;;;;;;5073908;28;20040;-32
2023/12/11 06:37:46;;;;;;;3.58;2.05;;;;;;;;;;5074363;28;20060;-28
2023/12/11 06:40:13;;;;;;;2.58;1.75;;;;;;;;;;5073942;28;20077;-27
2023/12/11 06:42:39;;;;;;;2.88;2.08;;;;;;;;;;5073809;28;20028;-27
2023/12/11 06:45:08;;;;;;;7.13;2.50;;;;;;;;;;5073926;28;20351;-31
2023/12/11 06:47:35;;;;;;;6.18;2.47;;;;;;;;;;5073622;28;20040;-27
2023/12/11 06:50:02;;;;;;;4.63;2.15;;;;;;;;;;5073680;28;20047;-26
2023/12/11 06:52:28;;;;;;;5.80;3.30;;;;;;;;;;5073883;28;20020;-27
2023/12/11 06:54:55;;;;;;;5.18;2.83;;;;;;;;;;5074259;28;20028;-28
2023/12/11 06:57:21;;;;;;;5.32;2.25;;;;;;;;;;5073627;28;20111;-30
2023/12/11 06:59:47;;;;;;;3.28;2.08;;;;;;;;;;5074118;28;20324;-30
2023/12/11 07:02:13;;;;;;;5.00;2.53;;;;;;;;;;5073318;28;20348;-28
2023/12/11 07:04:42;;;;;;;4.05;2.22;;;;;;;;;;5073879;28;20025;-28
2023/12/11 07:07:09;;;;;;;9.20;2.60;;;;;;;;;;5074434;28;20025;-31
2023/12/11 07:09:35;;;;;;;4.07;2.13;;;;;;;;;;5073541;28;20458;-29
2023/12/11 07:12:01;;;;;;;8.45;2.22;;;;;;;;;;5073347;28;20116;-28
2023/12/11 07:14:28;;;;;;;5.72;2.45;;;;;;;;;;5076326;28;20052;-28
2023/12/11 07:16:54;;;;;;;5.95;2.33;;;;;;;;;;5077505;28;20402;-28
2023/12/11 07:19:20;;;;;;;6.63;2.75;;;;;;;;;;5077715;28;20101;-29
2023/12/11 07:21:46;;;;;;;4.70;2.70;;;;;;;;;;5077252;28;20451;-30
2023/12/11 07:24:12;;;;;;;6.35;2.25;;;;;;;;;;5078121;28;20020;-26
2023/12/11 07:26:39;;;;;;;5.13;2.33;;;;;;;;;;5077020;28;20020;-28
2023/12/11 07:29:07;;;;;;;6.07;2.30;;;;;;;;;;5076958;28;20036;-31
2023/12/11 07:31:34;;;;;;;2.90;1.98;;;;;;;;;;5077227;28;20528;-29
2023/12/11 07:34:00;;;;;;;3.13;2.05;;;;;;;;;;5076798;28;20028;-29
2023/12/11 07:36:27;;;;;;;4.20;1.83;;;;;;;;;;5076814;28;20449;-29
2023/12/11 07:38:53;;;;;;;7.63;2.50;;;;;;;;;;5077119;28;20020;-30
2023/12/11 07:41:23;;;;;;;4.50;2.03;;;;;;;;;;5076794;28;20063;-30
2023/12/11 07:43:50;;;;;;;8.57;2.78;;;;;;;;;;5076705;28;20017;-28
2023/12/11 07:46:20;;;;;;;4.68;2.40;;;;;;;;;;5076783;28;20025;-29
2023/12/11 07:48:46;;;;;;;7.22;3.00;;;;;;;;;;5076849;28;20016;-29
2023/12/11 07:51:19;;;;;;;6.13;1.98;;;;;;;;;;5076457;28;20025;-28
2023/12/11 07:53:46;;;;;;;10.45;3.08;;;;;;;;;;5076460;28;20075;-27
2023/12/11 07:56:19;;;;;;;6.25;2.30;;;;;;;;;;5077274;28;20024;-28
2023/12/11 07:58:46;;;;;;;3.90;2.35;;;;;;;;;;5076507;28;20031;-27
2023/12/11 08:01:12;;;;;;;4.35;2.53;;;;;;;;;;5076068;28;20029;-29
2023/12/11 08:03:38;;;;;;;9.07;2.95;;;;;;;;;;5076238;28;20119;-28
2023/12/11 08:06:04;;;;;;;8.35;2.75;;;;;;;;;;5076347;28;20099;-27
2023/12/11 08:08:30;;;;;;;10.50;2.35;;;;;;;;;;5076349;28;20029;-31
2023/12/11 08:10:57;;;;;;;6.43;2.67;;;;;;;;;;5076268;28;20021;-30
2023/12/11 08:13:23;;;;;;;33.25;4.88;;;;;;;;;;5076052;28;20430;-30
2023/12/11 08:15:49;;;;;;;7.85;2.67;;;;;;;;;;5076042;28;20035;-27
2023/12/11 08:18:15;;;;;;;6.78;2.30;;;;;;;;;;5076304;28;20052;-26
2023/12/11 08:20:41;;;;;;;7.78;2.67;;;;;;;;;;5076092;28;20024;-29
2023/12/11 08:23:08;;;;;;;12.90;3.20;;;;;;;;;;5075893;28;20060;-31
2023/12/11 08:25:34;;;;;;;6.47;2.47;;;;;;;;;;5075797;28;20031;-27
2023/12/11 08:28:00;;;;;;;8.63;3.13;;;;;;;;;;5076503;28;20085;-28
2023/12/11 08:30:26;;;;;;;12.00;3.05;;;;;;;;;;5076070;28;20351;-27
2023/12/11 08:32:52;;;;;;;20.35;3.60;;;;;;;;;;5076129;28;20462;-28
2023/12/11 08:35:19;;;;;;;16.25;3.65;;;;;;;;;;5076281;28;20024;-30
2023/12/11 08:37:45;;;;;;;6.05;2.85;;;;;;;;;;5075718;28;20039;-31
2023/12/11 08:40:11;;;;;;;5.35;2.75;;;;;;;;;;5075511;28;20096;-28
2023/12/11 08:42:38;;;;;;;4.15;2.00;;;;;;;;;;5075525;28;20108;-29
2023/12/11 08:45:04;;;;;;;18.10;4.43;;;;;;;;;;5075622;28;20028;-27
2023/12/11 08:47:30;;;;;;;15.15;3.13;;;;;;;;;;5075608;28;20075;-28
2023/12/11 08:49:57;;;;;;;6.95;2.38;;;;;;;;;;5075861;28;20453;-30
2023/12/11 08:52:23;;;;;;;9.60;2.90;;;;;;;;;;5075418;28;20020;-28
2023/12/11 08:54:50;;;;;;;6.32;2.40;;;;;;;;;;5075583;28;20028;-28
2023/12/11 08:57:17;;;;;;;5.60;2.55;;;;;;;;;;5075181;28;20040;-27
2023/12/11 08:59:43;;;;;;;4.05;1.92;;;;;;;;;;5074276;28;20029;-28
2023/12/11 09:02:10;;;;;;;7.82;2.70;;;;;;;;;;5074919;28;20455;-29
2023/12/11 09:04:36;;;;;;;8.40;3.33;;;;;;;;;;5075864;28;20039;-30
2023/12/11 09:07:02;;;;;;;6.85;3.83;;;;;;;;;;5075694;28;20047;-29
2023/12/11 09:09:29;;;;;;;8.48;2.97;;;;;;;;;;5075712;28;20024;-30
2023/12/11 09:11:55;;;;;;;8.38;3.00;;;;;;;;;;5075109;28;20043;-27
2023/12/11 09:14:21;;;;;;;8.80;3.00;;;;;;;;;;5075240;28;20048;-27
2023/12/11 09:16:47;;;;;;;8.60;3.10;;;;;;;;;;5075483;28;20394;-30
2023/12/11 09:19:13;;;;;;;5.03;2.58;;;;;;;;;;5074903;28;20440;-29
2023/12/11 09:21:40;;;;;;;4.47;2.30;;;;;;;;;;5075415;28;20107;-29
2023/12/11 09:24:07;;;;;;;5.22;2.50;;;;;;;;;;5075114;28;20052;-30
2023/12/11 09:26:33;;;;;;;5.32;2.15;;;;;;;;;;5075464;28;20056;-29
2023/12/11 09:28:59;;;;;;;8.90;3.67;;;;;;;;;;5075047;28;20071;-25
2023/12/11 09:31:26;;;;;;;4.47;2.67;;;;;;;;;;5073740;28;20475;-29
2023/12/11 09:33:52;;;;;;;7.60;2.63;;;;;;;;;;5074590;28;20032;-30
2023/12/11 09:36:19;;;;;;;8.93;2.55;;;;;;;;;;5074219;28;20035;-30
2023/12/11 09:38:45;;;;;;;7.60;2.63;;;;;;;;;;5074817;28;20033;-26
2023/12/11 09:41:12;;;;;;;7.97;2.95;;;;;;;;;;5074383;28;20077;-27
2023/12/11 09:43:38;;;;;;;6.45;2.40;;;;;;;;;;5074440;28;20028;-27
2023/12/11 09:46:09;;;;;;;9.98;3.00;;;;;;;;;;5074526;28;20043;-25
2023/12/11 09:48:35;;;;;;;6.45;2.97;;;;;;;;;;5074813;28;20029;-31
2023/12/11 09:51:02;;;;;;;9.00;3.10;;;;;;;;;;5074764;28;20416;-31
2023/12/11 09:53:31;;;;;;;4.88;2.28;;;;;;;;;;5074415;28;20048;-27
2023/12/11 09:55:57;;;;;;;3.33;2.25;;;;;;;;;;5074722;28;20036;-30
2023/12/11 09:58:24;;;;;;;7.97;2.67;;;;;;;;;;5074433;28;20101;-31
2023/12/11 10:00:51;;;;;;;8.07;2.70;;;;;;;;;;5074576;28;20020;-29
2023/12/11 10:03:17;;;;;;;4.63;2.10;;;;;;;;;;5073154;28;20083;-27
2023/12/11 10:05:44;;;;;;;5.68;2.53;;;;;;;;;;5074577;28;20020;-30
2023/12/11 10:08:11;;;;;;;5.25;2.60;;;;;;;;;;5074265;28;20036;-25
2023/12/11 10:10:38;;;;;;;6.03;2.40;;;;;;;;;;5074256;28;20029;-28
2023/12/11 10:13:05;;;;;;;9.93;3.00;;;;;;;;;;5074163;28;20033;-27
2023/12/11 10:15:32;;;;;;;4.63;2.50;;;;;;;;;;5075242;28;20028;-27
2023/12/11 10:18:03;;;;;;;5.40;2.70;;;;;;;;;;5074254;28;20024;-28
2023/12/11 10:20:29;;;;;;;7.65;3.10;;;;;;;;;;5074465;28;20036;-30
2023/12/11 10:22:56;;;;;;;8.52;2.72;;;;;;;;;;5074262;28;20016;-28
2023/12/11 10:25:29;;;;;;;7.93;2.28;;;;;;;;;;5074531;28;20454;-26
2023/12/11 10:28:14;;;;;;;9.93;3.35;;;;;;;;;;5074496;28;20408;-31
2023/12/11 10:30:50;;;;;;;4.03;2.35;;;;;;;;;;5074637;28;20099;-29
2023/12/11 10:33:16;;;;;;;4.13;2.25;;;;;;;;;;5073948;28;20028;-30
2023/12/11 10:35:43;;;;;;;5.78;2.47;;;;;;;;;;5074380;28;20325;-28
2023/12/11 10:38:09;;;;;;;6.45;2.63;;;;;;;;;;5074070;28;20021;-32
2023/12/11 10:40:38;;;;;;;9.38;2.22;;;;;;;;;;5073854;28;20103;-29
2023/12/11 10:43:04;;;;;;;5.18;2.35;;;;;;;;;;5074444;28;20037;-32
2023/12/11 10:45:31;;;;;;;6.57;3.08;;;;;;;;;;5074111;28;20029;-31
2023/12/11 10:47:57;;;;;;;4.40;2.58;;;;;;;;;;5074185;28;20091;-33
2023/12/11 10:50:24;;;;;;;5.32;2.30;;;;;;;;;;5076733;28;20378;-29
2023/12/11 10:52:51;;;;;;;6.57;2.42;;;;;;;;;;5078053;28;20036;-28
2023/12/11 10:55:17;;;;;;;7.70;2.65;;;;;;;;;;5078224;28;20025;-27
2023/12/11 10:57:44;;;;;;;7.05;2.78;;;;;;;;;;5077776;28;20470;-31
2023/12/11 11:00:13;;;;;;;10.90;2.85;;;;;;;;;;5077237;28;20086;-30
2023/12/11 11:02:41;;;;;;;8.18;2.63;;;;;;;;;;5077086;28;20044;-26
2023/12/11 11:05:08;;;;;;;4.15;2.20;;;;;;;;;;5077482;28;20039;-28
2023/12/11 11:07:35;;;;;;;7.63;2.30;;;;;;;;;;5077016;28;20470;-26
2023/12/11 11:10:09;;;;;;;8.88;2.95;;;;;;;;;;5077028;28;20089;-27
2023/12/11 11:12:35;;;;;;;5.88;3.35;;;;;;;;;;5077472;28;20025;-30
2023/12/11 11:15:01;;;;;;;5.65;2.80;;;;;;;;;;5077396;28;20025;-29
2023/12/11 11:17:46;;;;;;;5.88;2.53;;;;;;;;;;5077008;28;20032;-30
2023/12/11 11:20:14;;;;;;;8.43;2.70;;;;;;;;;;5076975;28;20028;-32
2023/12/11 11:22:40;;;;;;;8.95;2.88;;;;;;;;;;5077063;28;20016;-31
2023/12/11 11:25:25;;;;;;;5.82;2.13;;;;;;;;;;5077087;28;20027;-31
2023/12/11 11:27:51;;;;;;;6.18;2.58;;;;;;;;;;5076932;28;20043;-28
2023/12/11 11:30:35;;;;;;;8.32;3.05;;;;;;;;;;5077074;28;20348;-31
2023/12/11 11:33:02;;;;;;;10.75;2.85;;;;;;;;;;5077230;28;20020;-28
2023/12/11 11:35:44;;;;;;;7.00;2.60;;;;;;;;;;5077047;28;20020;-27
2023/12/11 11:38:10;;;;;;;4.05;1.92;;;;;;;;;;5076932;28;20021;-30
2023/12/11 11:40:37;;;;;;;4.55;2.60;;;;;;;;;;5077056;28;20093;-31
2023/12/11 11:43:03;;;;;;;6.78;2.42;;;;;;;;;;5075728;28;20032;-28
2023/12/11 11:45:30;;;;;;;5.53;3.17;;;;;;;;;;5076888;28;20020;-31
2023/12/11 11:47:57;;;;;;;6.95;2.92;;;;;;;;;;5076754;28;20089;-30
2023/12/11 11:50:23;;;;;;;10.25;3.28;;;;;;;;;;5076942;28;20028;-29
2023/12/11 11:53:09;;;;;;;4.85;2.22;;;;;;;;;;5076473;28;20032;-27
2023/12/11 11:55:38;;;;;;;4.53;1.95;;;;;;;;;;5076964;28;20062;-31
2023/12/11 11:58:12;;;;;;;9.70;3.03;;;;;;;;;;5076641;28;20337;-27
2023/12/11 12:00:38;;;;;;;6.28;2.95;;;;;;;;;;5075987;28;20336;-31
2023/12/11 12:03:05;;;;;;;6.05;2.08;;;;;;;;;;5076139;28;20364;-29
2023/12/11 12:05:31;;;;;;;4.93;2.20;;;;;;;;;;5076230;28;20099;-27
2023/12/11 12:07:58;;;;;;;7.45;2.50;;;;;;;;;;5076655;28;20100;-29
2023/12/11 12:10:24;;;;;;;3.53;1.92;;;;;;;;;;5076571;28;20503;-30
2023/12/11 12:12:57;;;;;;;4.30;2.10;;;;;;;;;;5076508;28;20351;-29
2023/12/11 12:15:23;;;;;;;7.45;3.08;;;;;;;;;;5076791;28;20481;-30
2023/12/11 12:17:51;;;;;;;4.85;2.33;;;;;;;;;;5076227;28;20056;-28
2023/12/11 12:20:18;;;;;;;9.70;3.45;;;;;;;;;;5076351;28;20028;-29
2023/12/11 12:22:57;;;;;;;4.38;1.88;;;;;;;;;;5075771;28;20048;-29
2023/12/11 12:25:23;;;;;;;4.78;2.10;;;;;;;;;;5075894;28;20040;-29
2023/12/11 12:27:50;;;;;;;4.95;2.28;;;;;;;;;;5076016;28;20133;-30
2023/12/11 12:30:17;;;;;;;4.40;2.58;;;;;;;;;;5075995;28;20016;-28
2023/12/11 12:32:43;;;;;;;4.57;2.30;;;;;;;;;;5075653;28;20025;-30
2023/12/11 12:35:10;;;;;;;5.40;2.15;;;;;;;;;;5075672;28;20099;-28
2023/12/11 12:37:37;;;;;;;7.18;2.47;;;;;;;;;;5076002;28;20047;-30
2023/12/11 12:40:06;;;;;;;7.38;2.33;;;;;;;;;;5075772;28;20077;-28
2023/12/11 12:42:32;;;;;;;5.70;2.67;;;;;;;;;;5075569;28;20082;-28
2023/12/11 12:44:59;;;;;;;5.78;3.45;;;;;;;;;;5075871;28;20493;-29
2023/12/11 12:47:25;;;;;;;7.35;2.10;;;;;;;;;;5075661;28;20041;-29
2023/12/11 12:49:51;;;;;;;6.65;2.65;;;;;;;;;;5075510;28;20028;-28
2023/12/11 12:52:24;;;;;;;6.15;2.47;;;;;;;;;;5075370;28;20108;-28
2023/12/11 12:54:51;;;;;;;5.88;2.13;;;;;;;;;;5075465;28;20028;-26
2023/12/11 12:57:18;;;;;;;8.77;2.22;;;;;;;;;;5075336;28;20447;-28
2023/12/11 12:59:44;;;;;;;5.07;2.78;;;;;;;;;;5075375;28;20031;-29
2023/12/11 13:02:11;;;;;;;7.80;1.90;;;;;;;;;;5075438;28;20032;-30
2023/12/11 13:04:48;;;;;;;11.70;2.03;;;;;;;;;;5075029;28;20037;-27
2023/12/11 13:07:15;;;;;;;10.52;2.75;;;;;;;;;;5075173;28;20025;-29
2023/12/11 13:09:41;;;;;;;11.80;2.90;;;;;;;;;;5075617;28;20021;-30
2023/12/11 13:12:09;;;;;;;5.80;1.95;;;;;;;;;;5074332;28;20029;-27
2023/12/11 13:14:35;;;;;;;5.60;1.90;;;;;;;;;;5075309;28;20033;-28
2023/12/11 13:17:01;;;;;;;25.88;5.00;;;;;;;;;;5074989;28;20095;-27
2023/12/11 13:19:27;;;;;;;8.50;2.08;;;;;;;;;;5074848;28;20032;-29
2023/12/11 13:21:53;;;;;;;7.32;2.83;;;;;;;;;;5074466;28;20020;-32
2023/12/11 13:24:21;;;;;;;7.75;2.55;;;;;;;;;;5074665;28;20021;-30
2023/12/11 13:26:47;;;;;;;5.90;2.10;;;;;;;;;;5074640;28;20016;-29
2023/12/11 13:29:14;;;;;;;7.35;2.05;;;;;;;;;;5074842;28;20099;-30
2023/12/11 13:31:40;;;;;;;12.50;2.70;;;;;;;;;;5075274;28;20087;-30
2023/12/11 13:34:07;;;;;;;20.85;3.17;;;;;;;;;;5074796;28;20040;-28
2023/12/11 13:36:33;;;;;;;6.95;2.80;;;;;;;;;;5074475;28;20020;-27
2023/12/11 13:38:59;;;;;;;7.43;2.42;;;;;;;;;;5074864;28;20480;-30
2023/12/11 13:41:25;;;;;;;4.55;2.10;;;;;;;;;;5074425;28;20328;-30
2023/12/11 13:43:51;;;;;;;3.53;2.00;;;;;;;;;;5074515;28;20147;-29
2023/12/11 13:46:18;;;;;;;5.22;1.73;;;;;;;;;;5074705;28;20025;-26
2023/12/11 13:48:45;;;;;;;7.80;1.85;;;;;;;;;;5074722;28;20021;-29
2023/12/11 13:51:11;;;;;;;6.15;2.97;;;;;;;;;;5075123;28;20082;-28
2023/12/11 13:53:37;;;;;;;8.90;2.13;;;;;;;;;;5074438;28;20024;-28
2023/12/11 13:56:04;;;;;;;5.97;2.13;;;;;;;;;;5074572;28;20024;-31
2023/12/11 13:58:32;;;;;;;9.68;2.78;;;;;;;;;;5074541;28;20028;-29
2023/12/11 14:00:58;;;;;;;8.50;2.38;;;;;;;;;;5074238;28;20041;-32
2023/12/11 14:03:24;;;;;;;5.53;2.53;;;;;;;;;;5074075;28;20047;-29
2023/12/11 14:05:51;;;;;;;3.25;2.05;;;;;;;;;;5074265;28;20020;-29
2023/12/11 14:08:17;;;;;;;6.53;2.85;;;;;;;;;;5074754;28;20021;-29
2023/12/11 14:10:44;;;;;;;3.97;1.60;;;;;;;;;;5074320;28;20020;-29
2023/12/11 14:13:12;;;;;;;7.30;1.95;;;;;;;;;;5074171;28;20036;-30
2023/12/11 14:15:40;;;;;;;5.30;2.30;;;;;;;;;;5074293;28;20021;-29
2023/12/11 14:18:06;;;;;;;7.15;2.70;;;;;;;;;;5074355;28;20108;-28
2023/12/11 14:20:32;;;;;;;6.07;2.25;;;;;;;;;;5073898;28;20043;-31
2023/12/11 14:22:58;;;;;;;5.45;2.20;;;;;;;;;;5075987;28;20447;-33
2023/12/11 14:25:26;;;;;;;3.95;1.95;;;;;;;;;;5078209;28;20056;-30
2023/12/11 14:27:52;;;;;;;4.50;2.03;;;;;;;;;;5078681;28;20024;-31
2023/12/11 14:30:19;;;;;;;8.65;2.30;;;;;;;;;;5078157;28;20048;-30
2023/12/11 14:32:45;;;;;;;6.38;1.80;;;;;;;;;;5077977;28;20075;-28
2023/12/11 14:35:12;;;;;;;8.55;2.88;;;;;;;;;;5078117;28;20402;-27
2023/12/11 14:37:39;;;;;;;4.57;2.40;;;;;;;;;;5078363;28;20024;-29
2023/12/11 14:40:06;;;;;;;5.00;2.38;;;;;;;;;;5078026;28;20043;-30
2023/12/11 14:42:32;;;;;;;3.80;1.98;;;;;;;;;;5077818;28;20017;-29
2023/12/11 14:44:59;;;;;;;7.88;2.75;;;;;;;;;;5078157;28;20074;-31